createdAt,value
2022-08-22T00:00:13.695Z,22.67
2022-08-22T00:02:48.063Z,26.67
2022-08-22T00:02:49.711Z,24.20
2022-08-22T00:02:58.943Z,23.21
2022-08-22T00:02:59.072Z,23.05
2022-08-22T00:03:03.074Z,26.04
2022-08-22T00:03:12.378Z,25.72
2022-08-22T00:05:53.223Z,22.71
2022-08-22T00:08:29.350Z,22.76
2022-08-22T00:11:04.487Z,22.72
2022-08-22T00:13:42.191Z,22.70
2022-08-22T00:16:34.530Z,22.67
2022-08-22T00:19:13.567Z,22.68
2022-08-22T00:21:46.753Z,22.59
2022-08-22T00:24:22.391Z,22.60
2022-08-22T00:26:55.633Z,22.57
2022-08-22T00:29:28.732Z,22.52
2022-08-22T00:32:05.829Z,22.53
2022-08-22T00:34:40.071Z,22.41
2022-08-22T00:37:11.110Z,22.42
2022-08-22T00:39:44.781Z,22.62
2022-08-22T00:42:38.528Z,22.71
2022-08-22T00:45:26.843Z,22.40
2022-08-22T00:48:08.351Z,22.29
2022-08-22T00:50:57.900Z,22.25
2022-08-22T00:53:50.940Z,22.34
2022-08-22T00:56:37.596Z,22.40
2022-08-22T00:59:23.169Z,22.18
2022-08-22T01:02:05.165Z,22.21
2022-08-22T01:04:41.793Z,22.07
2022-08-22T01:07:23.844Z,22.11
2022-08-22T01:10:14.696Z,22.23
2022-08-22T01:12:59.715Z,22.20
2022-08-22T01:15:31.702Z,22.34
2022-08-22T01:18:30.063Z,22.14
2022-08-22T01:21:33.933Z,22.32
2022-08-22T01:25:04.453Z,22.13
2022-08-22T01:28:12.137Z,22.08
2022-08-22T01:31:13.806Z,21.99
2022-08-22T01:34:19.149Z,22.14
2022-08-22T01:37:13.759Z,21.87
2022-08-22T01:40:20.728Z,21.76
2022-08-22T01:43:06.263Z,21.83
2022-08-22T01:45:51.264Z,21.78
2022-08-22T01:48:23.939Z,21.64
2022-08-22T01:50:55.284Z,21.53
2022-08-22T01:53:28.209Z,21.61
2022-08-22T01:56:06.122Z,21.56
2022-08-22T01:58:38.286Z,21.49
2022-08-22T02:01:21.463Z,21.38
2022-08-22T02:04:01.689Z,21.37
2022-08-22T02:06:41.707Z,21.43
2022-08-22T02:09:24.863Z,21.46
2022-08-22T02:11:57.156Z,21.45
2022-08-22T02:14:53.928Z,21.36
2022-08-22T02:17:27.790Z,21.37
2022-08-22T02:20:02.991Z,21.42
2022-08-22T02:22:44.628Z,21.37
2022-08-22T02:25:21.578Z,21.40
2022-08-22T02:27:57.581Z,21.37
2022-08-22T02:30:31.501Z,21.34
2022-08-22T02:33:06.831Z,21.21
2022-08-22T02:35:41.360Z,21.13
2022-08-22T02:38:24.574Z,21.15
2022-08-22T02:41:05.484Z,21.20
2022-08-22T02:43:44.361Z,21.25
2022-08-22T02:46:23.545Z,21.18
2022-08-22T02:49:03.621Z,21.16
2022-08-22T02:51:40.713Z,21.05
2022-08-22T02:54:16.177Z,21.08
2022-08-22T02:56:53.794Z,20.99
2022-08-22T02:59:34.438Z,21.15
2022-08-22T03:02:33.746Z,21.07
2022-08-22T03:05:03.403Z,20.99
2022-08-22T03:07:39.365Z,20.93
2022-08-22T03:10:24.646Z,20.94
2022-08-22T03:13:03.929Z,20.98
2022-08-22T03:15:37.975Z,20.96
2022-08-22T03:18:18.027Z,20.82
2022-08-22T03:20:51.634Z,20.86
2022-08-22T03:23:29.584Z,20.58
2022-08-22T03:26:07.781Z,20.75
2022-08-22T03:28:59.471Z,20.65
2022-08-22T03:31:30.658Z,20.69
2022-08-22T03:34:22.318Z,20.70
2022-08-22T03:37:04.004Z,20.72
2022-08-22T03:39:55.022Z,20.83
2022-08-22T03:42:52.078Z,20.73
2022-08-22T03:45:46.048Z,20.70
2022-08-22T03:48:42.855Z,20.66
2022-08-22T03:51:24.942Z,20.68
2022-08-22T03:54:18.462Z,20.70
2022-08-22T03:57:21.199Z,20.62
2022-08-22T04:00:20.001Z,20.57
2022-08-22T04:03:24.097Z,20.64
2022-08-22T04:06:39.835Z,20.59
2022-08-22T04:09:40.134Z,20.73
2022-08-22T04:12:46.258Z,20.73
2022-08-22T04:15:32.187Z,20.68
2022-08-22T04:18:17.742Z,20.72
2022-08-22T04:21:10.771Z,20.71
2022-08-22T04:24:14.779Z,20.69
2022-08-22T04:26:49.162Z,20.62
2022-08-22T04:29:20.909Z,20.57
2022-08-22T04:31:57.378Z,20.52
2022-08-22T04:34:33.468Z,20.63
2022-08-22T04:37:11.990Z,20.66
2022-08-22T04:39:49.386Z,20.63
2022-08-22T04:42:32.540Z,20.62
2022-08-22T04:45:07.323Z,20.64
2022-08-22T04:47:40.485Z,20.66
2022-08-22T04:50:17.117Z,20.69
2022-08-22T04:52:57.771Z,20.69
2022-08-22T04:55:34.571Z,20.69
2022-08-22T04:58:13.278Z,20.67
2022-08-22T05:00:46.001Z,20.80
2022-08-22T05:03:18.170Z,20.80
2022-08-22T05:05:50.669Z,20.79
2022-08-22T05:08:23.901Z,20.97
2022-08-22T05:10:53.256Z,20.89
2022-08-22T05:13:26.212Z,20.99
2022-08-22T05:15:59.174Z,21.01
2022-08-22T05:18:30.287Z,21.03
2022-08-22T05:21:03.834Z,21.13
2022-08-22T05:23:41.396Z,21.15
2022-08-22T05:26:11.756Z,21.24
2022-08-22T05:28:43.486Z,21.26
2022-08-22T05:31:15.332Z,21.60
2022-08-22T05:33:47.288Z,21.62
2022-08-22T05:36:22.710Z,21.60
2022-08-22T05:38:55.865Z,21.64
2022-08-22T05:41:27.062Z,21.75
2022-08-22T05:43:56.015Z,-143.25
2022-08-22T05:46:29.747Z,21.89
2022-08-22T05:49:00.397Z,21.99
2022-08-22T05:51:38.160Z,22.10
2022-08-22T05:54:15.367Z,22.12
2022-08-22T05:56:48.312Z,22.17
2022-08-22T05:59:26.107Z,22.53
2022-08-22T06:02:03.797Z,22.67
2022-08-22T06:04:40.304Z,22.62
2022-08-22T06:07:15.916Z,22.79
2022-08-22T06:10:15.479Z,22.89
2022-08-22T06:12:54.995Z,23.09
2022-08-22T06:15:44.287Z,23.14
2022-08-22T06:18:21.946Z,23.38
2022-08-22T06:20:55.091Z,23.66
2022-08-22T06:23:29.218Z,23.79
2022-08-22T06:26:00.707Z,23.84
2022-08-22T06:28:35.200Z,24.07
2022-08-22T06:31:05.013Z,24.08
2022-08-22T06:33:40.853Z,24.38
2022-08-22T06:36:31.842Z,24.46
2022-08-22T06:39:18.723Z,24.81
2022-08-22T06:41:52.144Z,24.78
2022-08-22T06:44:24.666Z,24.95
2022-08-22T06:46:56.696Z,25.08
2022-08-22T06:49:26.984Z,25.21
2022-08-22T06:52:00.443Z,25.51
2022-08-22T06:54:34.589Z,25.78
2022-08-22T06:57:05.179Z,26.09
2022-08-22T06:59:37.380Z,26.18
2022-08-22T07:02:18.620Z,26.40
2022-08-22T07:04:49.910Z,26.62
2022-08-22T07:07:21.588Z,26.89
2022-08-22T07:09:55.654Z,27.08
2022-08-22T07:12:29.257Z,27.72
2022-08-22T07:15:02.955Z,29.38
2022-08-22T07:17:41.748Z,31.40
2022-08-22T07:20:26.113Z,33.47
2022-08-22T07:22:57.369Z,35.35
2022-08-22T07:25:28.017Z,36.74
2022-08-22T07:28:07.175Z,37.51
2022-08-22T07:30:46.466Z,39.73
2022-08-22T07:33:27.277Z,41.22
2022-08-22T07:36:01.654Z,42.67
2022-08-22T07:38:42.974Z,42.84
2022-08-22T07:41:20.093Z,44.22
2022-08-22T07:43:51.833Z,44.99
2022-08-22T07:46:30.344Z,45.37
2022-08-22T07:49:09.515Z,-143.25
2022-08-22T07:51:44.595Z,46.68
2022-08-22T07:54:15.244Z,47.36
2022-08-22T07:56:53.099Z,47.85
2022-08-22T07:59:22.652Z,48.14
2022-08-22T08:01:54.437Z,48.94
2022-08-22T08:04:27.314Z,49.45
2022-08-22T08:06:58.907Z,49.98
2022-08-22T08:09:32.984Z,49.66
2022-08-22T08:12:05.988Z,50.92
2022-08-22T08:14:37.863Z,50.46
2022-08-22T08:17:09.947Z,51.02
2022-08-22T08:19:42.164Z,51.02
2022-08-22T08:22:16.619Z,51.21
2022-08-22T08:24:45.775Z,52.09
2022-08-22T08:27:37.617Z,51.98
2022-08-22T08:30:15.229Z,50.23
2022-08-22T08:32:47.587Z,50.58
2022-08-22T08:35:23.652Z,51.03
2022-08-22T08:37:57.866Z,50.46
2022-08-22T08:40:51.796Z,51.17
2022-08-22T08:43:30.563Z,50.50
2022-08-22T08:46:17.914Z,51.87
2022-08-22T08:49:07.409Z,52.12
2022-08-22T08:52:08.107Z,52.28
2022-08-22T08:54:56.015Z,51.85
2022-08-22T08:57:40.163Z,51.40
2022-08-22T09:00:14.651Z,51.04
2022-08-22T09:02:52.735Z,51.47
2022-08-22T09:05:52.109Z,51.04
2022-08-22T09:09:17.193Z,52.46
2022-08-22T09:12:23.714Z,53.68
2022-08-22T09:15:17.397Z,53.08
2022-08-22T09:18:19.770Z,53.30
2022-08-22T09:21:09.005Z,53.86
2022-08-22T09:24:08.962Z,54.22
2022-08-22T09:26:47.094Z,53.45
2022-08-22T09:29:35.454Z,53.23
2022-08-22T09:32:24.242Z,53.49
2022-08-22T09:35:02.886Z,53.05
2022-08-22T09:37:42.708Z,54.16
2022-08-22T09:40:23.384Z,52.87
2022-08-22T09:43:01.924Z,53.05
2022-08-22T09:45:45.512Z,-143.25
2022-08-22T09:48:36.861Z,-143.25
2022-08-22T09:51:32.605Z,-143.25
2022-08-22T09:54:31.103Z,-143.25
2022-08-22T09:57:19.290Z,-143.25
2022-08-22T10:00:17.165Z,-143.25
2022-08-22T10:03:02.614Z,-143.25
2022-08-22T10:05:44.220Z,-143.25
2022-08-22T10:08:20.218Z,-143.25
2022-08-22T10:11:09.329Z,-143.25
2022-08-22T10:13:57.253Z,47.93
2022-08-22T10:16:50.456Z,47.74
2022-08-22T10:19:27.785Z,46.90
2022-08-22T10:22:20.612Z,47.35
2022-08-22T10:24:59.997Z,46.32
2022-08-22T10:27:43.710Z,46.35
2022-08-22T10:30:18.388Z,46.04
2022-08-22T10:32:52.846Z,45.50
2022-08-22T10:35:27.812Z,41.26
2022-08-22T10:38:00.150Z,39.30
2022-08-22T10:40:36.112Z,38.09
2022-08-22T10:43:12.839Z,37.77
2022-08-22T10:45:43.672Z,37.99
2022-08-22T10:48:24.922Z,35.66
2022-08-22T10:51:00.703Z,34.94
2022-08-22T10:53:48.563Z,34.55
2022-08-22T10:56:29.690Z,36.32
2022-08-22T10:59:09.470Z,38.16
2022-08-22T11:01:48.828Z,39.49
2022-08-22T11:04:32.065Z,40.32
2022-08-22T11:07:15.835Z,40.98
2022-08-22T11:09:53.010Z,40.01
2022-08-22T11:12:34.855Z,38.40
2022-08-22T11:15:12.490Z,37.68
2022-08-22T11:18:12.883Z,37.95
2022-08-22T11:20:55.008Z,39.43
2022-08-22T11:23:44.861Z,39.07
2022-08-22T11:26:29.324Z,37.84
2022-08-22T11:29:14.430Z,36.80
2022-08-22T11:31:51.687Z,36.22
2022-08-22T11:34:35.826Z,36.34
2022-08-22T11:37:11.711Z,35.93
2022-08-22T11:39:48.729Z,35.20
2022-08-22T11:42:24.190Z,35.00
2022-08-22T11:45:00.915Z,34.83
2022-08-22T11:47:34.572Z,34.34
2022-08-22T11:50:13.323Z,34.23
2022-08-22T11:53:09.782Z,34.01
2022-08-22T11:55:43.412Z,33.48
2022-08-22T11:58:28.953Z,33.87
2022-08-22T12:01:03.798Z,33.21
2022-08-22T12:03:55.854Z,33.34
2022-08-22T12:06:59.325Z,33.34
2022-08-22T12:09:40.377Z,34.06
2022-08-22T12:12:22.103Z,35.16
2022-08-22T12:15:03.991Z,36.15
2022-08-22T12:18:10.285Z,36.46
2022-08-22T12:21:03.937Z,35.72
2022-08-22T12:24:06.000Z,35.34
2022-08-22T12:26:49.252Z,34.81
2022-08-22T12:29:34.054Z,34.75
2022-08-22T12:32:44.041Z,34.41
2022-08-22T12:35:30.002Z,34.22
2022-08-22T12:38:28.549Z,34.07
2022-08-22T12:41:28.445Z,33.89
2022-08-22T12:44:03.616Z,33.74
2022-08-22T12:46:46.745Z,33.82
2022-08-22T12:49:37.030Z,34.04
2022-08-22T12:52:21.571Z,34.05
2022-08-22T12:55:03.172Z,34.19
2022-08-22T12:57:40.740Z,34.10
2022-08-22T13:00:26.770Z,34.06
2022-08-22T13:02:56.908Z,33.67
2022-08-22T13:05:30.412Z,35.74
2022-08-22T13:08:06.658Z,36.57
2022-08-22T13:10:44.773Z,35.70
2022-08-22T13:13:17.347Z,36.01
2022-08-22T13:16:01.554Z,37.24
2022-08-22T13:18:39.398Z,36.83
2022-08-22T13:21:18.880Z,35.75
2022-08-22T13:23:54.508Z,35.71
2022-08-22T13:26:32.983Z,36.93
2022-08-22T13:29:25.068Z,37.71
2022-08-22T13:31:59.335Z,38.21
2022-08-22T13:34:39.560Z,38.22
2022-08-22T13:37:16.062Z,38.34
2022-08-22T13:39:47.118Z,38.25
2022-08-22T13:42:30.044Z,37.46
2022-08-22T13:45:05.565Z,36.51
2022-08-22T13:47:39.456Z,36.87
2022-08-22T13:50:14.009Z,36.89
2022-08-22T13:52:52.474Z,36.88
2022-08-22T13:55:29.533Z,37.04
2022-08-22T13:58:04.802Z,37.21
2022-08-22T14:01:10.698Z,37.07
2022-08-22T14:03:49.190Z,36.81
2022-08-22T14:06:35.470Z,36.73
2022-08-22T14:09:17.471Z,36.67
2022-08-22T14:12:11.826Z,36.58
2022-08-22T14:14:46.231Z,36.66
2022-08-22T14:17:18.799Z,36.74
2022-08-22T14:19:59.664Z,36.53
2022-08-22T14:22:35.100Z,36.71
2022-08-22T14:25:09.080Z,37.24
2022-08-22T14:27:49.155Z,36.97
2022-08-22T14:30:21.948Z,36.48
2022-08-22T14:32:56.209Z,36.41
2022-08-22T14:35:37.539Z,36.29
2022-08-22T14:38:27.278Z,36.70
2022-08-22T14:41:05.759Z,36.56
2022-08-22T14:43:51.288Z,36.28
2022-08-22T14:46:28.009Z,36.18
2022-08-22T14:49:28.884Z,36.54
2022-08-22T14:52:06.269Z,36.62
2022-08-22T14:54:34.960Z,36.52
2022-08-22T14:57:10.407Z,36.38
2022-08-22T14:59:50.010Z,35.99
2022-08-22T15:02:26.688Z,36.39
2022-08-22T15:04:56.813Z,37.09
2022-08-22T15:07:27.642Z,37.89
2022-08-22T15:10:01.214Z,38.03
2022-08-22T15:12:36.183Z,37.96
2022-08-22T15:15:11.557Z,36.53
2022-08-22T15:17:44.407Z,36.96
2022-08-22T15:20:27.980Z,37.05
2022-08-22T15:23:00.137Z,37.58
2022-08-22T15:25:32.683Z,38.46
2022-08-22T15:28:05.837Z,37.20
2022-08-22T15:30:38.880Z,36.18
2022-08-22T15:33:19.054Z,37.14
2022-08-22T15:35:48.662Z,37.60
2022-08-22T15:38:30.119Z,38.01
2022-08-22T15:41:32.207Z,38.32
2022-08-22T15:44:30.636Z,38.12
2022-08-22T15:47:10.836Z,37.94
2022-08-22T15:49:55.739Z,37.85
2022-08-22T15:52:28.759Z,37.57
2022-08-22T15:55:23.532Z,37.73
2022-08-22T15:58:06.118Z,37.17
2022-08-22T16:00:43.290Z,36.33
2022-08-22T16:03:24.581Z,36.30
2022-08-22T16:05:56.077Z,35.81
2022-08-22T16:08:29.575Z,35.43
2022-08-22T16:11:32.250Z,34.61
2022-08-22T16:14:21.380Z,34.28
2022-08-22T16:17:29.311Z,33.74
2022-08-22T16:20:31.839Z,33.20
2022-08-22T16:23:09.646Z,32.95
2022-08-22T16:26:07.966Z,32.68
2022-08-22T16:29:02.286Z,32.31
2022-08-22T16:31:33.064Z,32.46
2022-08-22T16:34:24.131Z,32.35
2022-08-22T16:37:43.840Z,32.36
2022-08-22T16:40:19.137Z,32.08
2022-08-22T16:42:52.770Z,31.97
2022-08-22T16:45:31.296Z,31.72
2022-08-22T16:48:00.006Z,31.51
2022-08-22T16:50:35.130Z,31.47
2022-08-22T16:53:11.310Z,31.54
2022-08-22T16:55:49.281Z,31.02
2022-08-22T16:59:00.849Z,30.99
2022-08-22T17:02:00.914Z,31.07
2022-08-22T17:04:39.672Z,31.03
2022-08-22T17:07:22.218Z,30.71
2022-08-22T17:10:07.922Z,30.72
2022-08-22T17:12:54.805Z,30.59
2022-08-22T17:15:32.074Z,30.54
2022-08-22T17:18:15.365Z,30.53
2022-08-22T17:20:50.463Z,30.27
2022-08-22T17:23:30.952Z,30.35
2022-08-22T17:26:07.427Z,30.30
2022-08-22T17:28:42.975Z,30.20
2022-08-22T17:31:18.423Z,30.07
2022-08-22T17:34:01.407Z,30.03
2022-08-22T17:36:43.440Z,29.54
2022-08-22T17:39:29.250Z,29.57
2022-08-22T17:42:20.854Z,29.34
2022-08-22T17:45:00.196Z,29.30
2022-08-22T17:47:33.448Z,29.21
2022-08-22T17:50:07.922Z,29.42
2022-08-22T17:52:42.766Z,29.18
2022-08-22T17:55:18.099Z,29.25
2022-08-22T17:57:49.976Z,29.06
2022-08-22T18:00:21.155Z,29.02
2022-08-22T18:02:55.077Z,28.80
2022-08-22T18:05:27.927Z,28.57
2022-08-22T18:08:07.077Z,28.55
2022-08-22T18:10:47.827Z,28.72
2022-08-22T18:13:20.835Z,28.47
2022-08-22T18:15:54.507Z,28.48
2022-08-22T18:18:31.359Z,28.57
2022-08-22T18:21:04.977Z,28.55
2022-08-22T18:23:40.215Z,28.52
2022-08-22T18:26:24.970Z,28.32
2022-08-22T18:29:00.576Z,28.37
2022-08-22T18:31:41.375Z,28.23
2022-08-22T18:34:19.905Z,27.84
2022-08-22T18:36:55.459Z,27.91
2022-08-22T18:39:27.386Z,27.94
2022-08-22T18:42:05.125Z,27.85
2022-08-22T18:44:38.120Z,27.93
2022-08-22T18:47:15.131Z,27.70
2022-08-22T18:49:54.069Z,27.56
2022-08-22T18:52:41.183Z,27.30
2022-08-22T18:55:28.423Z,27.50
2022-08-22T18:58:14.023Z,27.29
2022-08-22T19:01:02.111Z,27.10
2022-08-22T19:03:42.305Z,27.36
2022-08-22T19:06:37.869Z,27.32
2022-08-22T19:09:41.072Z,27.37
2022-08-22T19:12:25.115Z,27.38
2022-08-22T19:15:26.747Z,27.27
2022-08-22T19:18:15.138Z,27.06
2022-08-22T19:21:00.767Z,27.21
2022-08-22T19:23:51.030Z,27.05
2022-08-22T19:26:29.034Z,27.26
2022-08-22T19:28:59.964Z,26.87
2022-08-22T19:31:46.541Z,26.72
2022-08-22T19:34:35.250Z,26.64
2022-08-22T19:37:30.811Z,26.74
2022-08-22T19:40:07.962Z,26.66
2022-08-22T19:42:38.943Z,26.34
2022-08-22T19:45:21.418Z,26.68
2022-08-22T19:48:11.745Z,26.67
2022-08-22T19:50:42.386Z,26.10
2022-08-22T19:53:29.999Z,26.15
2022-08-22T19:56:11.482Z,25.98
2022-08-22T19:58:55.959Z,26.15
2022-08-22T20:01:40.476Z,25.99
2022-08-22T20:04:23.535Z,25.94
2022-08-22T20:07:01.981Z,26.37
2022-08-22T20:09:44.389Z,26.29
2022-08-22T20:12:21.473Z,26.15
2022-08-22T20:14:50.417Z,26.23
2022-08-22T20:17:42.752Z,25.65
2022-08-22T20:20:35.090Z,25.94
2022-08-22T20:23:09.290Z,25.98
2022-08-22T20:25:45.108Z,25.99
2022-08-22T20:28:34.119Z,25.95
2022-08-22T20:31:07.638Z,25.80
2022-08-22T20:33:39.908Z,25.74
2022-08-22T20:36:28.418Z,25.96
2022-08-22T20:39:03.079Z,25.55
2022-08-22T20:41:35.822Z,25.54
2022-08-22T20:44:12.589Z,25.49
2022-08-22T20:46:54.905Z,25.45
2022-08-22T20:49:30.775Z,25.50
2022-08-22T20:52:02.905Z,25.21
2022-08-22T20:54:33.964Z,25.02
2022-08-22T20:57:11.597Z,25.21
2022-08-22T20:59:41.994Z,25.32
2022-08-22T21:02:17.140Z,25.28
2022-08-22T21:04:52.945Z,24.97
2022-08-22T21:07:29.708Z,25.05
2022-08-22T21:10:22.293Z,24.62
2022-08-22T21:13:03.490Z,25.16
2022-08-22T21:15:33.503Z,24.75
2022-08-22T21:18:02.231Z,24.72
2022-08-22T21:20:34.500Z,24.87
2022-08-22T21:23:06.550Z,24.87
2022-08-22T21:25:50.061Z,24.85
2022-08-22T21:28:28.786Z,24.77
2022-08-22T21:30:57.409Z,24.96
2022-08-22T21:33:26.235Z,24.69
2022-08-22T21:36:00.575Z,24.98
2022-08-22T21:38:30.257Z,24.52
2022-08-22T21:41:03.269Z,24.47
2022-08-22T21:43:34.620Z,24.79
2022-08-22T21:46:03.337Z,24.50
2022-08-22T21:48:34.083Z,24.50
2022-08-22T21:51:39.065Z,24.69
2022-08-22T21:54:42.556Z,24.47
2022-08-22T21:57:20.307Z,24.62
2022-08-22T21:59:59.296Z,24.37
2022-08-22T22:02:38.091Z,24.19
2022-08-22T22:05:11.668Z,24.21
2022-08-22T22:07:42.561Z,24.39
2022-08-22T22:10:15.823Z,24.36
2022-08-22T22:12:46.351Z,24.01
2022-08-22T22:15:18.317Z,24.02
2022-08-22T22:17:46.398Z,24.30
2022-08-22T22:20:16.447Z,23.86
2022-08-22T22:22:46.084Z,23.77
2022-08-22T22:25:39.194Z,23.81
2022-08-22T22:28:09.849Z,23.84
2022-08-22T22:30:38.062Z,24.30
2022-08-22T22:33:06.445Z,23.78
2022-08-22T22:35:35.352Z,23.62
2022-08-22T22:38:03.292Z,23.72
2022-08-22T22:40:32.851Z,23.67
2022-08-22T22:43:00.794Z,23.59
2022-08-22T22:45:28.676Z,23.44
2022-08-22T22:47:57.100Z,23.76
2022-08-22T22:50:25.423Z,23.77
2022-08-22T22:52:54.137Z,23.28
2022-08-22T22:55:24.558Z,23.46
2022-08-22T22:57:59.193Z,23.38
2022-08-22T23:00:30.852Z,23.43
2022-08-22T23:03:00.878Z,23.63
2022-08-22T23:05:29.175Z,23.73
2022-08-22T23:07:57.765Z,23.57
2022-08-22T23:10:25.875Z,23.45
2022-08-22T23:12:55.242Z,23.70
2022-08-22T23:15:23.564Z,23.46
2022-08-22T23:17:51.549Z,23.30
2022-08-22T23:20:20.177Z,23.32
2022-08-22T23:22:48.653Z,23.51
2022-08-22T23:25:16.969Z,23.32
2022-08-22T23:27:45.053Z,23.34
2022-08-22T23:30:22.093Z,23.53
2022-08-22T23:32:50.298Z,23.20
2022-08-22T23:35:18.128Z,23.41
2022-08-22T23:37:46.083Z,23.11
2022-08-22T23:40:14.284Z,23.40
2022-08-22T23:42:42.223Z,23.30
2022-08-22T23:45:10.743Z,23.41
2022-08-22T23:47:40.030Z,23.51
2022-08-22T23:50:08.653Z,23.50
2022-08-22T23:52:36.671Z,23.65
2022-08-22T23:55:05.310Z,23.26
2022-08-22T23:57:33.345Z,23.41
